createdAt,value
2018-05-12T00:01:58.101Z,99.70
2018-05-12T00:04:24.514Z,99.60
2018-05-12T00:06:50.931Z,99.50
2018-05-12T00:09:17.382Z,99.70
2018-05-12T00:11:43.827Z,99.90
2018-05-12T00:14:11.051Z,99.90
2018-05-12T00:16:37.534Z,99.90
2018-05-12T00:19:04.045Z,99.90
2018-05-12T00:21:30.511Z,99.90
2018-05-12T00:23:56.912Z,99.90
2018-05-12T00:26:24.568Z,99.90
2018-05-12T00:28:51.025Z,99.90
2018-05-12T00:31:18.227Z,99.90
2018-05-12T00:33:44.675Z,99.90
2018-05-12T00:36:11.065Z,99.90
2018-05-12T00:38:37.435Z,99.90
2018-05-12T00:41:03.831Z,99.90
2018-05-12T00:43:30.340Z,99.90
2018-05-12T00:45:56.889Z,99.90
2018-05-12T00:48:23.361Z,99.90
2018-05-12T00:50:49.848Z,99.90
2018-05-12T00:53:16.232Z,99.90
2018-05-12T00:55:42.738Z,99.90
2018-05-12T00:58:09.231Z,99.90
2018-05-12T01:00:36.548Z,99.90
2018-05-12T01:03:03.049Z,99.90
2018-05-12T01:05:29.525Z,99.90
2018-05-12T01:07:55.922Z,99.90
2018-05-12T01:10:22.380Z,99.90
2018-05-12T01:12:48.778Z,99.90
2018-05-12T01:15:15.960Z,99.70
2018-05-12T01:17:42.401Z,99.70
2018-05-12T01:20:08.892Z,99.90
2018-05-12T01:22:35.323Z,99.90
2018-05-12T01:25:02.590Z,99.90
2018-05-12T01:27:29.083Z,99.90
2018-05-12T01:29:55.429Z,99.90
2018-05-12T01:32:21.790Z,99.90
2018-05-12T01:34:49.005Z,99.90
2018-05-12T01:37:15.482Z,99.90
2018-05-12T01:39:41.930Z,99.90
2018-05-12T01:42:08.468Z,99.90
2018-05-12T01:44:35.063Z,99.90
2018-05-12T01:47:01.513Z,99.90
2018-05-12T01:49:28.743Z,99.90
2018-05-12T01:51:55.184Z,99.90
2018-05-12T01:54:21.603Z,99.90
2018-05-12T01:56:48.113Z,99.90
2018-05-12T01:59:15.350Z,99.90
2018-05-12T02:01:41.824Z,99.90
2018-05-12T02:04:08.293Z,99.90
2018-05-12T02:06:35.500Z,99.90
2018-05-12T02:09:01.954Z,99.90
2018-05-12T02:11:28.392Z,99.90
2018-05-12T02:13:55.559Z,99.90
2018-05-12T02:16:22.005Z,99.90
2018-05-12T02:18:48.419Z,99.90
2018-05-12T02:21:15.602Z,99.90
2018-05-12T02:23:42.009Z,99.90
2018-05-12T02:26:09.246Z,99.90
2018-05-12T02:28:36.448Z,99.90
2018-05-12T02:31:02.996Z,99.90
2018-05-12T02:33:29.447Z,99.90
2018-05-12T02:35:57.067Z,99.90
2018-05-12T02:38:23.496Z,99.90
2018-05-12T02:40:49.849Z,99.90
2018-05-12T02:43:16.271Z,99.90
2018-05-12T02:45:42.641Z,99.90
2018-05-12T02:48:09.093Z,99.90
2018-05-12T02:50:35.595Z,99.90
2018-05-12T02:53:02.045Z,99.90
2018-05-12T02:55:28.535Z,99.90
2018-05-12T02:57:58.147Z,99.90
2018-05-12T03:00:24.712Z,99.90
2018-05-12T03:02:51.217Z,99.90
2018-05-12T03:05:18.979Z,99.90
2018-05-12T03:07:46.203Z,99.90
2018-05-12T03:10:14.158Z,99.90
2018-05-12T03:12:40.632Z,99.90
2018-05-12T03:15:07.065Z,99.90
2018-05-12T03:17:33.469Z,99.90
2018-05-12T03:19:59.955Z,99.90
2018-05-12T03:22:26.481Z,99.90
2018-05-12T03:24:52.877Z,99.90
2018-05-12T03:27:20.068Z,99.90
2018-05-12T03:29:46.498Z,99.90
2018-05-12T03:32:12.885Z,99.90
2018-05-12T03:34:39.324Z,99.90
2018-05-12T03:37:06.410Z,99.90
2018-05-12T03:39:32.797Z,99.90
2018-05-12T03:41:59.191Z,99.90
2018-05-12T03:44:25.642Z,99.90
2018-05-12T03:46:52.059Z,99.90
2018-05-12T03:49:18.510Z,99.90
2018-05-12T03:51:44.929Z,99.90
2018-05-12T03:54:11.365Z,99.50
2018-05-12T03:56:37.732Z,99.40
2018-05-12T03:59:04.897Z,99.30
2018-05-12T04:01:31.323Z,99.20
2018-05-12T04:03:58.063Z,99.30
2018-05-12T04:06:37.469Z,99.60
2018-05-12T04:09:15.927Z,99.50
2018-05-12T04:11:55.253Z,99.90
2018-05-12T04:14:22.435Z,99.90
2018-05-12T04:16:48.783Z,99.90
2018-05-12T04:19:15.107Z,99.90
2018-05-12T04:21:41.481Z,99.90
2018-05-12T04:24:07.775Z,99.90
2018-05-12T04:26:34.096Z,99.90
2018-05-12T04:29:00.385Z,99.70
2018-05-12T04:31:27.459Z,99.50
2018-05-12T04:33:54.508Z,99.40
2018-05-12T04:36:24.380Z,99.30
2018-05-12T04:38:51.447Z,99.50
2018-05-12T04:41:17.733Z,99.40
2018-05-12T04:43:44.050Z,99.60
2018-05-12T04:46:10.383Z,99.60
2018-05-12T04:48:36.692Z,99.20
2018-05-12T04:51:03.004Z,99.60
2018-05-12T04:53:29.301Z,99.20
2018-05-12T04:55:58.675Z,99.00
2018-05-12T04:58:24.956Z,99.30
2018-05-12T05:00:51.251Z,99.40
2018-05-12T05:03:17.533Z,99.50
2018-05-12T05:05:44.564Z,99.70
2018-05-12T05:08:10.981Z,99.60
2018-05-12T05:10:37.232Z,99.10
2018-05-12T05:13:03.558Z,99.40
2018-05-12T05:15:29.863Z,99.30
2018-05-12T05:17:56.172Z,99.50
2018-05-12T05:20:23.354Z,99.30
2018-05-12T05:22:49.638Z,97.80
2018-05-12T05:25:15.926Z,97.90
2018-05-12T05:27:42.207Z,96.40
2018-05-12T05:30:08.500Z,96.20
2018-05-12T05:32:34.786Z,96.10
2018-05-12T05:35:01.104Z,96.10
2018-05-12T05:37:27.383Z,96.20
2018-05-12T05:39:54.416Z,95.80
2018-05-12T05:42:20.699Z,95.80
2018-05-12T05:44:47.038Z,95.00
2018-05-12T05:47:13.327Z,95.20
2018-05-12T05:49:41.123Z,95.10
2018-05-12T05:52:07.426Z,95.10
2018-05-12T05:54:35.124Z,94.10
2018-05-12T05:57:01.407Z,93.90
2018-05-12T05:59:27.725Z,94.20
2018-05-12T06:01:54.040Z,94.00
2018-05-12T06:04:20.328Z,93.60
2018-05-12T06:06:46.664Z,93.80
2018-05-12T06:09:13.684Z,93.60
2018-05-12T06:11:40.716Z,94.40
2018-05-12T06:14:07.035Z,94.10
2018-05-12T06:16:34.464Z,93.50
2018-05-12T06:19:00.796Z,92.90
2018-05-12T06:21:27.100Z,93.10
2018-05-12T06:23:54.144Z,92.70
2018-05-12T06:26:21.231Z,92.00
2018-05-12T06:28:47.526Z,91.90
2018-05-12T06:31:13.832Z,91.70
2018-05-12T06:33:40.120Z,91.60
2018-05-12T06:36:06.411Z,91.20
2018-05-12T06:38:32.738Z,91.00
2018-05-12T06:40:59.795Z,91.60
2018-05-12T06:43:26.834Z,90.60
2018-05-12T06:45:53.868Z,90.50
2018-05-12T06:48:20.980Z,90.20
2018-05-12T06:50:47.393Z,90.20
2018-05-12T06:53:13.652Z,90.30
2018-05-12T06:55:39.956Z,90.40
2018-05-12T06:58:07.166Z,91.10
2018-05-12T07:00:34.467Z,90.80
2018-05-12T07:03:00.808Z,90.40
2018-05-12T07:05:27.114Z,91.20
2018-05-12T07:07:53.522Z,91.40
2018-05-12T07:10:20.628Z,91.00
2018-05-12T07:12:46.984Z,91.30
2018-05-12T07:15:13.374Z,90.40
2018-05-12T07:17:40.248Z,91.50
2018-05-12T07:20:06.564Z,91.20
2018-05-12T07:22:32.902Z,90.20
2018-05-12T07:24:59.384Z,90.00
2018-05-12T07:27:26.551Z,84.20
2018-05-12T07:29:53.098Z,84.00
2018-05-12T07:32:19.401Z,83.90
2018-05-12T07:34:46.459Z,82.60
2018-05-12T07:37:12.834Z,82.60
2018-05-12T07:39:39.242Z,81.00
2018-05-12T07:42:05.676Z,80.70
2018-05-12T07:44:31.952Z,79.40
2018-05-12T07:47:02.660Z,78.50
2018-05-12T07:49:29.003Z,78.50
2018-05-12T07:51:55.292Z,77.90
2018-05-12T07:54:21.805Z,75.00
2018-05-12T07:56:50.251Z,71.90
2018-05-12T07:59:16.608Z,71.80
2018-05-12T08:01:42.904Z,66.10
2018-05-12T08:04:09.217Z,60.60
2018-05-12T08:06:35.510Z,56.80
2018-05-12T08:09:02.619Z,57.40
2018-05-12T08:11:28.924Z,57.30
2018-05-12T08:13:55.197Z,59.70
2018-05-12T08:16:21.519Z,58.10
2018-05-12T08:18:47.846Z,55.30
2018-05-12T08:21:14.198Z,55.10
2018-05-12T08:23:40.510Z,56.00
2018-05-12T08:26:06.844Z,55.80
2018-05-12T08:28:34.042Z,50.10
2018-05-12T08:31:00.352Z,50.00
2018-05-12T08:33:26.644Z,48.60
2018-05-12T08:35:52.980Z,48.90
2018-05-12T08:38:20.035Z,48.30
2018-05-12T08:40:47.153Z,49.30
2018-05-12T08:43:13.452Z,49.30
2018-05-12T08:45:40.319Z,52.50
2018-05-12T08:48:06.647Z,53.90
2018-05-12T08:50:32.962Z,53.00
2018-05-12T08:52:59.300Z,53.30
2018-05-12T08:55:25.671Z,52.70
2018-05-12T08:57:51.952Z,51.80
2018-05-12T09:00:18.255Z,51.60
2018-05-12T09:02:44.616Z,55.50
2018-05-12T09:05:10.954Z,53.90
2018-05-12T09:07:37.260Z,52.20
2018-05-12T09:10:03.600Z,52.00
2018-05-12T09:12:29.907Z,50.60
2018-05-12T09:14:56.934Z,46.10
2018-05-12T09:17:35.498Z,46.10
2018-05-12T09:20:01.816Z,44.90
2018-05-12T09:22:28.121Z,45.70
2018-05-12T09:24:55.172Z,44.50
2018-05-12T09:27:23.054Z,44.40
2018-05-12T09:29:50.109Z,46.30
2018-05-12T09:32:16.452Z,46.30
2018-05-12T09:34:42.764Z,48.90
2018-05-12T09:37:09.172Z,46.10
2018-05-12T09:39:35.430Z,46.20
2018-05-12T09:42:01.727Z,46.00
2018-05-12T09:44:28.004Z,43.50
2018-05-12T09:46:54.340Z,42.20
2018-05-12T09:49:20.644Z,41.80
2018-05-12T09:51:46.996Z,40.70
2018-05-12T09:54:13.532Z,41.00
2018-05-12T09:56:39.828Z,42.40
2018-05-12T09:59:06.130Z,41.80
2018-05-12T10:01:32.452Z,40.40
2018-05-12T10:03:58.760Z,39.70
2018-05-12T10:06:25.076Z,41.50
2018-05-12T10:08:52.126Z,40.10
2018-05-12T10:11:18.420Z,40.80
2018-05-12T10:13:44.701Z,39.00
2018-05-12T10:16:11.010Z,38.80
2018-05-12T10:18:37.325Z,39.20
2018-05-12T10:21:04.417Z,37.30
2018-05-12T10:23:30.720Z,37.30
2018-05-12T10:25:57.033Z,34.70
2018-05-12T10:28:24.066Z,37.50
2018-05-12T10:30:50.442Z,37.50
2018-05-12T10:33:16.724Z,35.60
2018-05-12T10:35:43.037Z,37.10
2018-05-12T10:38:09.314Z,37.60
2018-05-12T10:40:35.638Z,35.30
2018-05-12T10:43:02.706Z,35.50
2018-05-12T10:45:29.092Z,35.50
2018-05-12T10:47:55.351Z,35.70
2018-05-12T10:50:22.397Z,34.30
2018-05-12T10:52:49.423Z,35.40
2018-05-12T10:55:15.730Z,35.40
2018-05-12T10:57:42.033Z,34.90
2018-05-12T11:00:08.434Z,33.40
2018-05-12T11:02:34.742Z,35.10
2018-05-12T11:05:01.027Z,35.20
2018-05-12T11:07:27.332Z,33.40
2018-05-12T11:09:54.386Z,37.40
2018-05-12T11:12:20.720Z,37.30
2018-05-12T11:14:47.760Z,40.30
2018-05-12T11:17:14.795Z,38.80
2018-05-12T11:19:41.097Z,38.80
2018-05-12T11:22:07.432Z,38.30
2018-05-12T11:24:33.791Z,39.00
2018-05-12T11:27:00.819Z,40.40
2018-05-12T11:29:27.112Z,40.40
2018-05-12T11:31:54.114Z,39.80
2018-05-12T11:34:20.402Z,39.80
2018-05-12T11:36:46.682Z,40.30
2018-05-12T11:39:12.968Z,39.00
2018-05-12T11:41:39.331Z,37.30
2018-05-12T11:44:06.391Z,37.80
2018-05-12T11:46:32.715Z,37.80
2018-05-12T11:48:59.004Z,37.40
2018-05-12T11:51:25.363Z,38.10
2018-05-12T11:53:51.616Z,39.80
2018-05-12T11:56:17.916Z,37.70
2018-05-12T11:58:44.951Z,39.40
2018-05-12T12:01:11.444Z,39.00
2018-05-12T12:03:37.841Z,38.90
2018-05-12T12:06:04.148Z,38.70
2018-05-12T12:08:31.250Z,39.40
2018-05-12T12:10:57.627Z,38.70
2018-05-12T12:13:24.096Z,37.80
2018-05-12T12:15:51.223Z,38.90
2018-05-12T12:18:17.569Z,38.90
2018-05-12T12:20:44.674Z,37.10
2018-05-12T12:23:11.030Z,37.10
2018-05-12T12:25:37.373Z,36.10
2018-05-12T12:28:03.735Z,37.50
2018-05-12T12:30:30.035Z,39.10
2018-05-12T12:32:57.140Z,40.00
2018-05-12T12:35:23.467Z,39.90
2018-05-12T12:37:49.827Z,38.50
2018-05-12T12:40:16.267Z,38.60
2018-05-12T12:42:42.546Z,39.70
2018-05-12T12:45:09.000Z,39.60
2018-05-12T12:47:37.299Z,40.30
2018-05-12T12:50:03.720Z,40.00
2018-05-12T12:52:30.153Z,41.70
2018-05-12T12:54:56.526Z,40.10
2018-05-12T12:57:23.613Z,40.50
2018-05-12T12:59:49.977Z,40.50
2018-05-12T13:02:16.276Z,40.40
2018-05-12T13:04:42.664Z,40.70
2018-05-12T13:07:09.786Z,41.40
2018-05-12T13:09:36.184Z,41.40
2018-05-12T13:12:03.188Z,41.80
2018-05-12T13:14:29.493Z,42.40
2018-05-12T13:16:55.830Z,43.60
2018-05-12T13:19:22.258Z,42.80
2018-05-12T13:21:48.559Z,43.20
2018-05-12T13:24:14.855Z,41.60
2018-05-12T13:26:41.172Z,40.10
2018-05-12T13:29:09.069Z,40.80
2018-05-12T13:31:35.527Z,40.80
2018-05-12T13:34:01.959Z,41.10
2018-05-12T13:36:29.156Z,40.80
2018-05-12T13:38:56.922Z,41.40
2018-05-12T13:41:23.285Z,40.90
2018-05-12T13:43:49.652Z,41.80
2018-05-12T13:46:16.032Z,40.70
2018-05-12T13:48:43.106Z,41.00
2018-05-12T13:51:09.448Z,40.60
2018-05-12T13:53:35.750Z,40.40
2018-05-12T13:56:02.274Z,39.20
2018-05-12T13:58:28.425Z,39.50
2018-05-12T14:00:54.804Z,39.50
2018-05-12T14:03:21.192Z,39.90
2018-05-12T14:05:47.500Z,41.60
2018-05-12T14:08:13.865Z,42.20
2018-05-12T14:10:40.237Z,41.60
2018-05-12T14:13:06.588Z,42.40
2018-05-12T14:15:32.915Z,43.40
2018-05-12T14:17:59.239Z,41.30
2018-05-12T14:20:25.562Z,44.00
2018-05-12T14:22:53.416Z,44.50
2018-05-12T14:25:19.737Z,43.50
2018-05-12T14:27:46.056Z,43.20
2018-05-12T14:30:12.380Z,42.60
2018-05-12T14:32:38.738Z,42.50
2018-05-12T14:35:05.082Z,43.30
2018-05-12T14:37:31.389Z,42.90
2018-05-12T14:39:57.685Z,42.20
2018-05-12T14:42:24.753Z,43.30
2018-05-12T14:44:51.089Z,43.30
2018-05-12T14:47:17.522Z,39.60
2018-05-12T14:49:43.855Z,41.80
2018-05-12T14:52:10.183Z,40.80
2018-05-12T14:54:36.514Z,41.70
2018-05-12T14:57:03.617Z,40.20
2018-05-12T14:59:30.175Z,40.20
2018-05-12T15:01:57.274Z,40.10
2018-05-12T15:04:23.686Z,40.10
2018-05-12T15:06:50.034Z,40.10
2018-05-12T15:09:17.544Z,39.90
2018-05-12T15:11:44.617Z,40.30
2018-05-12T15:14:10.949Z,40.30
2018-05-12T15:16:37.309Z,39.90
2018-05-12T15:19:03.613Z,39.40
2018-05-12T15:21:30.046Z,40.30
2018-05-12T15:23:56.291Z,41.10
2018-05-12T15:26:22.677Z,39.20
2018-05-12T15:28:48.964Z,39.30
2018-05-12T15:31:15.281Z,39.30
2018-05-12T15:33:41.612Z,39.70
2018-05-12T15:36:07.992Z,39.30
2018-05-12T15:38:34.344Z,38.70
2018-05-12T15:41:01.417Z,39.40
2018-05-12T15:43:27.775Z,39.40
2018-05-12T15:45:54.097Z,39.60
2018-05-12T15:48:20.488Z,40.10
2018-05-12T15:50:47.571Z,39.80
2018-05-12T15:53:13.887Z,39.80
2018-05-12T15:55:40.229Z,39.20
2018-05-12T15:58:07.625Z,39.10
2018-05-12T16:00:33.980Z,39.50
2018-05-12T16:03:01.088Z,40.60
2018-05-12T16:05:27.417Z,40.60
2018-05-12T16:07:53.760Z,40.40
2018-05-12T16:10:20.081Z,40.40
2018-05-12T16:12:46.412Z,40.30
2018-05-12T16:15:12.745Z,39.60
2018-05-12T16:17:39.080Z,39.80
2018-05-12T16:20:05.388Z,41.20
2018-05-12T16:22:31.728Z,38.70
2018-05-12T16:24:58.464Z,38.20
2018-05-12T16:27:24.769Z,38.60
2018-05-12T16:29:51.113Z,37.80
2018-05-12T16:32:17.425Z,40.40
2018-05-12T16:34:43.749Z,38.80
2018-05-12T16:37:10.803Z,40.20
2018-05-12T16:39:37.876Z,39.70
2018-05-12T16:42:04.228Z,39.70
2018-05-12T16:44:30.557Z,40.40
2018-05-12T16:46:58.010Z,41.90
2018-05-12T16:49:24.478Z,42.50
2018-05-12T16:51:51.583Z,42.50
2018-05-12T16:54:17.926Z,42.40
2018-05-12T16:56:44.257Z,44.30
2018-05-12T16:59:10.627Z,43.50
2018-05-12T17:01:36.933Z,42.90
2018-05-12T17:04:03.258Z,41.80
2018-05-12T17:06:29.613Z,42.00
2018-05-12T17:08:56.674Z,42.70
2018-05-12T17:11:23.725Z,43.10
2018-05-12T17:13:50.779Z,43.20
2018-05-12T17:16:17.826Z,43.20
2018-05-12T17:18:44.899Z,44.10
2018-05-12T17:21:11.239Z,44.10
2018-05-12T17:23:37.575Z,44.40
2018-05-12T17:26:03.892Z,44.00
2018-05-12T17:28:30.226Z,44.90
2018-05-12T17:30:56.559Z,45.40
2018-05-12T17:33:22.873Z,44.80
2018-05-12T17:35:49.260Z,45.50
2018-05-12T17:38:15.587Z,45.30
2018-05-12T17:40:41.909Z,45.50
2018-05-12T17:43:08.207Z,46.20
2018-05-12T17:45:34.517Z,46.80
2018-05-12T17:48:00.813Z,47.00
2018-05-12T17:50:27.852Z,46.90
2018-05-12T17:52:54.889Z,47.70
2018-05-12T17:55:21.971Z,48.50
2018-05-12T17:57:48.267Z,48.40
2018-05-12T18:00:14.599Z,48.10
2018-05-12T18:02:42.385Z,48.10
2018-05-12T18:05:09.397Z,48.10
2018-05-12T18:07:35.757Z,49.20
2018-05-12T18:10:02.113Z,49.30
2018-05-12T18:12:28.424Z,51.10
2018-05-12T18:14:54.711Z,48.20
2018-05-12T18:17:21.130Z,48.20
2018-05-12T18:19:47.396Z,48.60
2018-05-12T18:22:13.737Z,48.80
2018-05-12T18:24:40.041Z,49.00
2018-05-12T18:27:07.117Z,48.80
2018-05-12T18:29:33.412Z,48.70
2018-05-12T18:32:00.472Z,49.30
2018-05-12T18:34:27.535Z,48.70
2018-05-12T18:36:53.889Z,48.60
2018-05-12T18:39:20.981Z,49.00
2018-05-12T18:41:48.049Z,49.60
2018-05-12T18:44:15.253Z,50.00
2018-05-12T18:46:41.506Z,50.00
2018-05-12T18:49:07.848Z,49.00
2018-05-12T18:51:34.192Z,49.50
2018-05-12T18:54:01.235Z,49.90
2018-05-12T18:56:29.167Z,50.30
2018-05-12T18:58:56.294Z,50.20
2018-05-12T19:01:22.691Z,50.50
2018-05-12T19:03:50.369Z,50.60
2018-05-12T19:06:16.761Z,50.50
2018-05-12T19:08:43.271Z,50.50
2018-05-12T19:11:09.723Z,50.60
2018-05-12T19:13:36.893Z,50.80
2018-05-12T19:16:03.285Z,51.10
2018-05-12T19:18:29.630Z,51.30
2018-05-12T19:20:56.007Z,51.90
2018-05-12T19:23:22.404Z,51.70
2018-05-12T19:25:48.750Z,51.60
2018-05-12T19:28:15.848Z,52.60
2018-05-12T19:30:42.193Z,52.60
2018-05-12T19:33:08.576Z,52.60
2018-05-12T19:35:35.679Z,53.70
2018-05-12T19:38:02.853Z,53.70
2018-05-12T19:40:29.257Z,53.60
2018-05-12T19:42:55.595Z,53.40
2018-05-12T19:45:21.987Z,53.10
2018-05-12T19:47:48.328Z,53.10
2018-05-12T19:50:14.633Z,54.00
2018-05-12T19:52:40.999Z,54.70
2018-05-12T19:55:07.368Z,54.70
2018-05-12T19:57:34.437Z,55.80
2018-05-12T20:00:01.545Z,56.70
2018-05-12T20:02:27.868Z,56.10
2018-05-12T20:04:54.249Z,56.00
2018-05-12T20:07:20.821Z,56.60
2018-05-12T20:09:47.254Z,57.10
2018-05-12T20:12:13.631Z,57.10
2018-05-12T20:14:39.944Z,57.90
2018-05-12T20:17:06.261Z,57.60
2018-05-12T20:19:32.676Z,57.70
2018-05-12T20:21:59.071Z,57.50
2018-05-12T20:24:25.463Z,57.60
2018-05-12T20:26:51.846Z,57.40
2018-05-12T20:29:18.994Z,58.20
2018-05-12T20:31:45.364Z,58.00
2018-05-12T20:34:11.726Z,58.00
2018-05-12T20:36:38.109Z,57.50
2018-05-12T20:39:05.296Z,58.60
2018-05-12T20:41:31.775Z,58.80
2018-05-12T20:43:58.151Z,59.40
2018-05-12T20:46:24.528Z,59.90
2018-05-12T20:48:51.075Z,60.00
2018-05-12T20:51:17.558Z,58.80
2018-05-12T20:53:43.928Z,59.50
2018-05-12T20:56:10.337Z,59.10
2018-05-12T20:58:36.709Z,60.70
2018-05-12T21:01:03.099Z,62.70
2018-05-12T21:03:29.452Z,64.80
2018-05-12T21:05:55.897Z,67.30
2018-05-12T21:08:22.297Z,68.90
2018-05-12T21:10:48.728Z,71.00
2018-05-12T21:13:15.137Z,72.30
2018-05-12T21:15:41.605Z,73.20
2018-05-12T21:18:08.027Z,75.00
2018-05-12T21:20:34.503Z,75.70
2018-05-12T21:23:00.974Z,75.70
2018-05-12T21:25:28.037Z,76.00
2018-05-12T21:27:54.447Z,76.50
2018-05-12T21:30:20.939Z,76.30
2018-05-12T21:32:48.129Z,77.30
2018-05-12T21:35:14.635Z,77.30
2018-05-12T21:37:41.139Z,78.00
2018-05-12T21:40:07.631Z,78.10
2018-05-12T21:42:34.236Z,78.10
2018-05-12T21:45:01.605Z,78.60
2018-05-12T21:47:28.007Z,79.30
2018-05-12T21:49:54.448Z,79.60
2018-05-12T21:52:20.948Z,79.70
2018-05-12T21:54:47.479Z,80.50
2018-05-12T21:57:14.841Z,81.00
2018-05-12T21:59:48.294Z,81.30
2018-05-12T22:02:15.277Z,81.90
2018-05-12T22:04:41.705Z,82.60
2018-05-12T22:07:08.419Z,82.90
2018-05-12T22:09:35.645Z,83.40
2018-05-12T22:12:02.109Z,84.00
2018-05-12T22:14:28.575Z,83.70
2018-05-12T22:16:55.019Z,82.30
2018-05-12T22:19:21.498Z,83.10
2018-05-12T22:21:48.699Z,83.10
2018-05-12T22:24:15.975Z,83.00
2018-05-12T22:26:42.377Z,82.90
2018-05-12T22:29:08.875Z,83.70
2018-05-12T22:31:35.306Z,84.10
2018-05-12T22:34:01.784Z,83.80
2018-05-12T22:36:28.201Z,84.30
2018-05-12T22:38:55.331Z,84.90
2018-05-12T22:41:22.532Z,85.40
2018-05-12T22:43:48.926Z,85.40
2018-05-12T22:46:15.404Z,86.40
2018-05-12T22:48:41.892Z,88.00
2018-05-12T23:00:53.292Z,88.00
2018-05-12T23:03:19.783Z,89.70
2018-05-12T23:05:46.149Z,89.70
2018-05-12T23:08:12.675Z,90.00
2018-05-12T23:20:24.127Z,90.20
2018-05-12T23:22:50.544Z,90.90
2018-05-12T23:25:16.903Z,91.40
2018-05-12T23:27:43.325Z,91.50
2018-05-12T23:30:09.739Z,91.80
2018-05-12T23:32:36.130Z,91.60
2018-05-12T23:35:02.623Z,91.50
2018-05-12T23:37:29.137Z,91.80
2018-05-12T23:39:55.599Z,91.80
2018-05-12T23:42:22.179Z,91.80
2018-05-12T23:44:48.490Z,91.70
2018-05-12T23:47:14.989Z,91.70
2018-05-12T23:49:41.387Z,91.70
2018-05-12T23:52:08.011Z,91.70
2018-05-12T23:54:34.391Z,92.20
2018-05-12T23:57:00.795Z,92.40
2018-05-12T23:59:27.253Z,92.40
